x

Central Aleutians 230nm Sw Dutch Harbor (46072) Wave Buoy

5:50am - Mon 26th Jan 2015 All times are UTC.

  • Sig Wave height 9.8ft
  • Peak Period 7s
  • Average Period 6s
  • Wind
    22mph, 25mph gusts
  • Sea Temp 41°f
  • 空気 Temp 38°f
  • Sea Pressure 987.2mb

More Historic Weather Station data

Upgrade to MSW Pro to gain access to the past 30 days of data for over 8000 Wavebouys and Weather Stations around the globe.

Join Pro

Comparision Forecast

View Surf forecast
   
Mon 01/26 5:50am 10ft 7s 6s 22 25 mph 987.2mb 41f 38f
4:50am 10ft 7s 6s 25 27 mph 987mb 40f 38f
3:50am 10ft 7s 6s 25 29 mph 987.4mb 41f 38f
2:50am 10ft 7s 6s 27 31 mph 987.5mb 41f 37f
1:50am 8.5ft 6s 5s 22 27 mph 988.1mb 41f 38f
12:50am 7.5ft 6s 5s 22 27 mph 988.6mb 41f 38f
Sun 01/25 11:50pm 7ft 6s 5s 22 27 mph 989.5mb 41f 37f
10:50pm 6ft 6s 5s 22 27 mph 990.4mb 41f 38f
9:50pm 6ft 6s 5s 22 27 mph 991.5mb 41f 37f
8:50pm 6.5ft 6s 5s 20 25 mph 992.2mb 41f 38f
7:50pm 6ft 6s 5s 18 22 mph 992.8mb 41f 37f
6:50pm 6ft 6s 5s 20 25 mph 993.3mb 41f 36f
5:50pm 6ft 6s 5s 18 22 mph 993.9mb 41f 36f
4:50pm 6.5ft 6s 5s 18 22 mph 994.7mb 41f 35f
3:50pm 6ft 6s 5s 20 25 mph 995.3mb 41f 37f
2:50pm 7ft 6s 5s 20 22 mph 996.4mb 41f 36f
1:50pm 7ft 6s 5s 22 25 mph 997.4mb 41f 37f
12:50pm 6.5ft 6s 5s 22 27 mph 998mb 41f 37f
11:50am 7ft 5s 5s 22 27 mph 998.7mb 41f 36f
10:50am 6.5ft 6s 5s 20 25 mph 999.4mb 41f 38f
9:50am 6.5ft 10s 5s 20 25 mph 1000.1mb 41f 38f
8:50am 6ft 9s 5s 18 22 mph 1000.8mb 41f 38f
7:50am 6.5ft 10s 5s 18 22 mph 1001.6mb 41f 35f
6:50am 6ft 11s 5s 20 25 mph 1002mb 41f 37f
5:50am 6ft 10s 5s 16 20 mph 1002.5mb 41f 35f
4:50am 7ft 9s 6s 16 18 mph 1002.8mb 41f 36f
3:50am 6ft 8s 5s 13 18 mph 1003.4mb 41f 37f
2:50am 6ft 10s 6s 16 20 mph 1003.8mb 40f 37f
1:50am 7ft 10s 6s 13 18 mph 1004.2mb 40f 37f
12:50am 6.5ft 11s 6s 18 20 mph 1004.8mb 40f 38f
Sat 01/24 11:50pm 6.5ft 11s 6s 16 25 mph 1005.7mb 40f 35f
10:50pm 7ft 10s 7s 18 22 mph 1007mb 40f 34f
9:50pm 6.5ft 11s 8s 16 18 mph 1007.8mb 40f 36f
8:50pm 6.5ft 9s 8s 11 13 mph 1008.5mb 40f 36f
7:50pm 6.5ft 10s 8s 7 9 mph 1009mb 41f 36f
6:50pm 6.5ft 11s 8s 16 18 mph 1008.7mb 41f 36f
5:50pm 6ft 11s 7s 7 9 mph 1009mb 41f 36f
4:50pm 6ft 12s 7s 7 11 mph 1009mb 41f 36f
3:50pm 7ft 11s 7s 4 11 mph 1009.2mb 41f 35f
2:50pm 8ft 11s 7s 4 9 mph 1010.1mb 41f 35f
1:50pm 9ft 11s 7s 13 16 mph 1010.3mb 41f 36f
12:50pm 7.5ft 9s 6s 11 16 mph 1010.4mb 41f 36f
11:50am 9ft 11s 7s 9 13 mph 1010.7mb 41f 36f
10:50am 8.5ft 11s 7s 2 4 mph 1010.9mb 41f 36f
9:50am 9ft 11s 7s 11 16 mph 1010.5mb 41f 36f
8:50am 9.5ft 12s 7s 16 20 mph 1010.3mb 41f 36f
7:50am 9.5ft 12s 7s 11 18 mph 1010.7mb 41f 36f
6:50am 10ft 11s 7s 20 25 mph 1010.1mb 41f 36f
5:50am 9ft 12s 6s 16 25 mph 1009.9mb 41f 35f
4:50am 11ft 13s 7s 20 25 mph 1009.4mb 41f 36f
3:50am 12ft 12s 7s 20 27 mph 1009mb 40f 36f
2:50am 14ft 12s 7s 20 25 mph 1008.6mb 40f 35f
1:50am 14.5ft 11s 7s 20 25 mph 1008mb 40f 35f
12:50am 14ft 11s 7s 22 27 mph 1007.7mb 40f 35f
Fri 01/23 11:50pm 15.5ft 10s 7s 22 31 mph 1007.3mb 40f 35f
10:50pm 15.5ft 12s 7s 25 29 mph 1007mb 40f 35f
9:50pm 16ft 11s 8s 25 29 mph 1007mb 41f 36f
8:50pm 16ft 13s 8s 27 34 mph 1006.6mb 41f 35f
7:50pm 15ft 13s 8s 27 36 mph 1005.8mb 41f 36f
6:50pm 14ft 12s 7s 27 34 mph 1004.9mb 41f 36f
5:50pm 14ft 14s 7s 29 36 mph 1003.8mb 41f 36f
4:50pm 13ft 14s 7s 29 36 mph 1002.9mb 41f 36f
3:50pm 13.5ft 12s 7s 29 36 mph 1002.2mb 41f 36f
2:50pm 15ft 13s 7s 31 40 mph 1001.3mb 41f 36f
1:50pm 16ft 11s 7s 31 40 mph 1000.6mb 40f 35f
12:50pm 18.5ft 11s 8s 31 38 mph 1000mb 40f 35f
11:50am 17.5ft 11s 8s 29 43 mph 999.3mb 40f 36f
10:50am 20.5ft 12s 8s 34 40 mph 998.3mb 40f 36f
9:50am 18.5ft 12s 8s 31 40 mph 998mb 40f 36f
8:50am 19.5ft 12s 8s 31 38 mph 997mb 40f 36f
7:50am 18.5ft 13s 8s 31 38 mph 996.3mb 41f 36f
6:50am 16.5ft 12s 7s 34 40 mph 995.1mb 41f 36f
5:50am 17ft 12s 7s 34 40 mph 994.3mb 41f 36f
4:50am 17.5ft 13s 8s 34 40 mph 993.3mb 41f 37f
3:50am 17.5ft 12s 7s 34 38 mph 992.1mb 41f 37f
2:50am 18ft 11s 8s 31 40 mph 991.1mb 41f 37f
1:50am 19.5ft 12s 8s 34 40 mph 990.2mb 41f 37f
12:50am 18.5ft 11s 8s 29 38 mph 989.5mb 41f 37f
Thu 01/22 11:50pm 20.5ft 12s 9s 29 36 mph 989mb 41f 37f
10:50pm 20ft 11s 8s 31 38 mph 988.7mb 42f 38f
9:50pm 19.5ft 12s 8s 29 38 mph 988.3mb 42f 38f
8:50pm 17.5ft 11s 8s 31 40 mph 987.5mb 42f 39f
7:50pm 16ft 12s 7s 31 40 mph 986.5mb 42f 39f
6:50pm 18ft 12s 8s 34 40 mph 985.3mb 42f 39f
5:50pm 15ft 12s 7s 34 43 mph 984.5mb 41f 39f
4:50pm 13.5ft 11s 7s 34 40 mph 983.8mb 41f 38f
3:50pm 15.5ft 11s 7s 34 40 mph 983.2mb 42f 39f
2:50pm 15ft 11s 7s 34 40 mph 982.7mb 41f 40f
1:50pm 15.5ft 11s 7s 31 43 mph 982.4mb 41f 40f
12:50pm 17.5ft 12s 7s 34 40 mph 981.9mb 41f 39f
11:50am 17ft 9s 7s 31 38 mph 981.9mb 42f 39f
10:50am 17.5ft 11s 7s 31 38 mph 981.4mb 42f 40f
9:50am 18.5ft 12s 8s 29 38 mph 981.3mb 42f 40f
8:50am 19.5ft 13s 8s 31 38 mph 981mb 42f 40f
7:50am 17ft 13s 7s 31 40 mph 980.6mb 42f 40f